Time;durP1;ratioP1;P1;durP2;ratioP2;P2;SDS_P1;SDS_P2;PMS_P1;PMS_P2;Temp;Humidity;BMP_temperature;BMP_pressure;BME280_temperature;BME280_humidity;BME280_pressure;Samples;Min_cycle;Max_cycle;Signal;HPM_P1;HPM_P2
2023/12/13 00:00:39;;;;;;;;;;;8.50;99.90;;;;;;5119756;27;20143;-62
2023/12/13 00:03:05;;;;;;;;;;;8.40;99.90;;;;;;5117917;27;19916;-62
2023/12/13 00:05:30;;;;;;;;;;;8.40;99.90;;;;;;5122046;27;19922;-62
2023/12/13 00:07:56;;;;;;;;;;;8.40;99.90;;;;;;5112501;27;19959;-62
2023/12/13 00:10:21;;;;;;;;;;;8.40;99.90;;;;;;5102242;27;19915;-62
2023/12/13 00:12:47;;;;;;;;;;;8.40;99.90;;;;;;5119361;27;19919;-63
2023/12/13 00:15:12;;;;;;;;;;;8.30;99.90;;;;;;5118433;27;19923;-63
2023/12/13 00:17:38;;;;;;;;;;;8.30;99.90;;;;;;5118985;27;19923;-63
2023/12/13 00:20:05;;;;;;;;;;;8.30;99.90;;;;;;5113602;27;20354;-62
2023/12/13 00:22:31;;;;;;;;;;;8.30;99.90;;;;;;5117947;27;19923;-62
2023/12/13 00:24:57;;;;;;;;;;;8.30;99.90;;;;;;5119406;27;20313;-62
2023/12/13 00:27:22;;;;;;;;;;;8.30;99.90;;;;;;5111924;27;19915;-62
2023/12/13 00:29:48;;;;;;;;;;;8.20;99.90;;;;;;5112702;27;20405;-63
2023/12/13 00:32:13;;;;;;;;;;;8.20;99.90;;;;;;5116040;27;19995;-62
2023/12/13 00:34:39;;;;;;;;;;;8.20;99.90;;;;;;5119145;27;19915;-62
2023/12/13 00:37:05;;;;;;;;;;;8.20;99.90;;;;;;5122488;27;19915;-62
2023/12/13 00:39:32;;;;;;;;;;;8.20;99.90;;;;;;5125519;27;20005;-62
2023/12/13 00:41:57;;;;;;;;;;;8.20;99.90;;;;;;5112951;27;19964;-62
2023/12/13 00:44:23;;;;;;;;;;;8.20;99.90;;;;;;5117331;27;20346;-63
2023/12/13 00:46:48;;;;;;;;;;;8.20;99.90;;;;;;5117492;27;19918;-62
2023/12/13 00:49:14;;;;;;;;;;;8.10;99.90;;;;;;5115659;27;19953;-62
2023/12/13 00:51:40;;;;;;;;;;;8.20;99.90;;;;;;5118247;27;19931;-63
2023/12/13 00:54:05;;;;;;;;;;;8.20;99.90;;;;;;5118291;27;19915;-63
2023/12/13 00:56:31;;;;;;;;;;;8.10;99.90;;;;;;5112455;27;20403;-62
2023/12/13 00:58:57;;;;;;;;;;;8.20;99.90;;;;;;5110014;27;20466;-63
2023/12/13 01:01:24;;;;;;;;;;;8.10;99.90;;;;;;5122135;28;19966;-62
2023/12/13 01:03:49;;;;;;;;;;;8.20;99.90;;;;;;5118949;27;19915;-63
2023/12/13 01:06:15;;;;;;;;;;;8.20;99.90;;;;;;5115648;28;19922;-62
2023/12/13 01:08:40;;;;;;;;;;;8.20;99.90;;;;;;5119556;28;19919;-62
2023/12/13 01:11:06;;;;;;;;;;;8.20;99.90;;;;;;5118399;28;20003;-63
2023/12/13 01:13:33;;;;;;;;;;;8.20;99.90;;;;;;5117792;27;19921;-62
2023/12/13 01:15:58;;;;;;;;;;;8.30;99.90;;;;;;5111422;28;19966;-62
2023/12/13 01:18:23;;;;;;;;;;;8.20;99.90;;;;;;5114206;28;20625;-63
2023/12/13 01:20:49;;;;;;;;;;;8.20;99.90;;;;;;5118600;28;19922;-63
2023/12/13 01:23:15;;;;;;;;;;;8.20;99.90;;;;;;5119032;28;20397;-63
2023/12/13 01:25:40;;;;;;;;;;;8.20;99.90;;;;;;5110465;28;20289;-62
2023/12/13 01:28:06;;;;;;;;;;;8.20;99.90;;;;;;5111836;28;19915;-63
2023/12/13 01:30:31;;;;;;;;;;;8.20;99.90;;;;;;5112722;28;19920;-62
2023/12/13 01:32:57;;;;;;;;;;;8.20;99.90;;;;;;5117772;28;19924;-63
2023/12/13 01:35:22;;;;;;;;;;;8.20;99.90;;;;;;5116366;28;20184;-62
2023/12/13 01:37:48;;;;;;;;;;;8.20;99.90;;;;;;5117673;28;20001;-62
2023/12/13 01:40:13;;;;;;;;;;;8.20;99.90;;;;;;5116119;28;19916;-62
2023/12/13 01:42:39;;;;;;;;;;;8.20;99.90;;;;;;5119327;28;19921;-63
2023/12/13 01:45:04;;;;;;;;;;;8.20;99.90;;;;;;5116118;28;19919;-63
2023/12/13 01:47:31;;;;;;;;;;;8.20;99.90;;;;;;5119033;27;20022;-62
2023/12/13 01:49:57;;;;;;;;;;;8.10;99.90;;;;;;5116232;28;20267;-63
2023/12/13 01:52:22;;;;;;;;;;;8.10;99.90;;;;;;5121803;28;19984;-62
2023/12/13 01:54:49;;;;;;;;;;;8.10;99.90;;;;;;5117042;28;19959;-63
2023/12/13 01:57:15;;;;;;;;;;;8.20;99.90;;;;;;5117538;28;19921;-63
2023/12/13 01:59:41;;;;;;;;;;;8.10;99.90;;;;;;5121120;28;20375;-62
2023/12/13 02:02:07;;;;;;;;;;;8.10;99.90;;;;;;5112904;28;19915;-63
2023/12/13 02:04:34;;;;;;;;;;;8.10;99.90;;;;;;5119241;28;19938;-63
2023/12/13 02:07:00;;;;;;;;;;;8.10;99.90;;;;;;5118919;27;19922;-62
2023/12/13 02:09:26;;;;;;;;;;;8.10;99.90;;;;;;5125688;27;19945;-63
2023/12/13 02:11:52;;;;;;;;;;;8.10;99.90;;;;;;5120407;27;20377;-62
2023/12/13 02:14:18;;;;;;;;;;;8.10;99.90;;;;;;5116470;27;19916;-63
2023/12/13 02:16:43;;;;;;;;;;;8.10;99.90;;;;;;5121498;27;20122;-63
2023/12/13 02:19:10;;;;;;;;;;;8.10;99.90;;;;;;5127046;27;20014;-63
2023/12/13 02:21:37;;;;;;;;;;;8.10;99.90;;;;;;5121929;27;20160;-63
2023/12/13 02:24:03;;;;;;;;;;;8.10;99.90;;;;;;5117526;27;19916;-62
2023/12/13 02:26:29;;;;;;;;;;;8.10;99.90;;;;;;5123044;27;19938;-63
2023/12/13 02:28:54;;;;;;;;;;;8.10;99.90;;;;;;5123183;27;19916;-63
2023/12/13 02:31:21;;;;;;;;;;;8.10;99.90;;;;;;5123900;27;20439;-63
2023/12/13 02:33:46;;;;;;;;;;;8.10;99.90;;;;;;5120750;27;19915;-63
2023/12/13 02:36:12;;;;;;;;;;;8.10;99.90;;;;;;5120363;27;19926;-63
2023/12/13 02:38:40;;;;;;;;;;;8.10;99.90;;;;;;5121690;27;19968;-63
2023/12/13 02:41:06;;;;;;;;;;;8.10;99.90;;;;;;5123587;27;20015;-63
2023/12/13 02:43:31;;;;;;;;;;;8.10;99.90;;;;;;5123710;27;20254;-62
2023/12/13 02:45:57;;;;;;;;;;;8.10;99.90;;;;;;5120090;27;19920;-63
2023/12/13 02:48:23;;;;;;;;;;;8.10;99.90;;;;;;5124754;27;19922;-63
2023/12/13 02:50:48;;;;;;;;;;;8.10;99.90;;;;;;5122015;27;19915;-63
2023/12/13 02:53:14;;;;;;;;;;;8.10;99.90;;;;;;5122363;27;19915;-63
2023/12/13 02:55:39;;;;;;;;;;;8.10;99.90;;;;;;5123530;27;19972;-62
2023/12/13 02:58:05;;;;;;;;;;;8.10;99.90;;;;;;5118667;27;19915;-62
2023/12/13 03:00:30;;;;;;;;;;;8.10;99.90;;;;;;5124287;27;19915;-62
2023/12/13 03:02:57;;;;;;;;;;;8.10;99.90;;;;;;5122013;27;19916;-63
2023/12/13 03:05:22;;;;;;;;;;;8.10;99.90;;;;;;5117687;27;20006;-62
2023/12/13 03:07:48;;;;;;;;;;;8.10;99.90;;;;;;5121655;27;20006;-63
2023/12/13 03:10:13;;;;;;;;;;;8.10;99.90;;;;;;5117679;27;19959;-63
2023/12/13 03:12:39;;;;;;;;;;;8.10;99.90;;;;;;5117784;27;19915;-63
2023/12/13 03:15:04;;;;;;;;;;;8.10;99.90;;;;;;5119858;27;20179;-63
2023/12/13 03:17:30;;;;;;;;;;;8.10;99.90;;;;;;5122252;27;19930;-62
2023/12/13 03:19:55;;;;;;;;;;;8.10;99.90;;;;;;5116079;27;19931;-62
2023/12/13 03:22:21;;;;;;;;;;;8.10;99.90;;;;;;5118490;27;20381;-62
2023/12/13 03:24:47;;;;;;;;;;;8.10;99.90;;;;;;5114363;27;19924;-62
2023/12/13 03:27:12;;;;;;;;;;;8.20;99.90;;;;;;5112215;27;20290;-62
2023/12/13 03:29:38;;;;;;;;;;;8.20;99.90;;;;;;5112754;27;20005;-62
2023/12/13 03:32:04;;;;;;;;;;;8.20;99.90;;;;;;5113984;27;19968;-62
2023/12/13 03:34:29;;;;;;;;;;;8.20;99.90;;;;;;5124147;27;19915;-62
2023/12/13 03:36:55;;;;;;;;;;;8.20;99.90;;;;;;5121600;27;20393;-63
2023/12/13 03:39:20;;;;;;;;;;;8.20;99.90;;;;;;5121947;27;19916;-62
2023/12/13 03:41:46;;;;;;;;;;;8.20;99.90;;;;;;5121754;27;19919;-62
2023/12/13 03:44:11;;;;;;;;;;;8.20;99.90;;;;;;5116780;27;19923;-62
2023/12/13 03:46:37;;;;;;;;;;;8.20;99.90;;;;;;5121649;27;19919;-62
2023/12/13 03:49:03;;;;;;;;;;;8.20;99.90;;;;;;5121735;27;19915;-62
2023/12/13 03:51:29;;;;;;;;;;;8.20;99.90;;;;;;5121076;27;19915;-62
2023/12/13 03:53:54;;;;;;;;;;;8.20;99.90;;;;;;5120557;27;20324;-62
2023/12/13 03:56:20;;;;;;;;;;;8.10;99.90;;;;;;5123300;27;19989;-62
2023/12/13 03:58:45;;;;;;;;;;;8.20;99.90;;;;;;5124715;27;19916;-62
2023/12/13 04:01:11;;;;;;;;;;;8.20;99.90;;;;;;5118021;27;19969;-62
2023/12/13 04:03:36;;;;;;;;;;;8.20;99.90;;;;;;5125020;27;19926;-62
2023/12/13 04:06:03;;;;;;;;;;;8.20;99.90;;;;;;5119236;27;19915;-63
2023/12/13 04:08:29;;;;;;;;;;;8.20;99.90;;;;;;5124128;27;19927;-63
2023/12/13 04:10:54;;;;;;;;;;;8.20;99.90;;;;;;5116563;27;19915;-62
2023/12/13 04:13:19;;;;;;;;;;;8.20;99.90;;;;;;5118759;27;19916;-63
2023/12/13 04:15:45;;;;;;;;;;;8.20;99.90;;;;;;5118208;27;19927;-63
2023/12/13 04:18:11;;;;;;;;;;;8.20;99.90;;;;;;5120246;27;19915;-63
2023/12/13 04:20:36;;;;;;;;;;;8.20;99.90;;;;;;5123146;27;19993;-63
2023/12/13 04:23:02;;;;;;;;;;;8.20;99.90;;;;;;5118755;27;19915;-62
2023/12/13 04:25:28;;;;;;;;;;;8.20;99.90;;;;;;5114675;27;20393;-63
2023/12/13 04:27:53;;;;;;;;;;;8.20;99.90;;;;;;5115509;27;19961;-63
2023/12/13 04:30:19;;;;;;;;;;;8.20;99.90;;;;;;5113604;27;19970;-63
2023/12/13 04:32:44;;;;;;;;;;;8.20;99.90;;;;;;5111489;27;19915;-63
2023/12/13 04:35:10;;;;;;;;;;;8.20;99.90;;;;;;5120604;27;19924;-63
2023/12/13 04:37:36;;;;;;;;;;;8.20;99.90;;;;;;5123926;27;20382;-63
2023/12/13 04:40:03;;;;;;;;;;;8.20;99.90;;;;;;5117184;27;19916;-63
2023/12/13 04:42:28;;;;;;;;;;;8.20;99.90;;;;;;5120880;27;20138;-63
2023/12/13 04:44:54;;;;;;;;;;;8.20;99.90;;;;;;5119159;27;19919;-63
2023/12/13 04:47:19;;;;;;;;;;;8.20;99.90;;;;;;5121100;27;20351;-62
2023/12/13 04:49:45;;;;;;;;;;;8.20;99.90;;;;;;5120338;27;20258;-63
2023/12/13 04:52:11;;;;;;;;;;;8.20;99.90;;;;;;5117803;27;19916;-63
2023/12/13 04:54:37;;;;;;;;;;;8.20;99.90;;;;;;5121819;27;19919;-63
2023/12/13 04:57:03;;;;;;;;;;;8.20;99.90;;;;;;5112961;28;20271;-63
2023/12/13 04:59:28;;;;;;;;;;;8.20;99.90;;;;;;5117839;27;19950;-63
2023/12/13 05:01:54;;;;;;;;;;;8.20;99.90;;;;;;5118770;27;19947;-63
2023/12/13 05:04:19;;;;;;;;;;;8.20;99.90;;;;;;5117847;27;19977;-62
2023/12/13 05:06:45;;;;;;;;;;;8.20;99.90;;;;;;5120556;27;19968;-63
2023/12/13 05:09:10;;;;;;;;;;;8.20;99.90;;;;;;5116524;28;19972;-62
2023/12/13 05:11:36;;;;;;;;;;;8.20;99.90;;;;;;5122346;28;19929;-63
2023/12/13 05:14:03;;;;;;;;;;;8.20;99.90;;;;;;5119574;28;20060;-63
2023/12/13 05:16:28;;;;;;;;;;;8.10;99.90;;;;;;5121716;28;20396;-63
2023/12/13 05:18:54;;;;;;;;;;;8.20;99.90;;;;;;5123891;28;19958;-62
2023/12/13 05:21:19;;;;;;;;;;;8.20;99.90;;;;;;5118850;28;19999;-62
2023/12/13 05:23:45;;;;;;;;;;;8.20;99.90;;;;;;5116748;28;20409;-63
2023/12/13 05:26:10;;;;;;;;;;;8.20;99.90;;;;;;5113979;28;19923;-63
2023/12/13 05:28:37;;;;;;;;;;;8.20;99.90;;;;;;5110417;28;19915;-62
2023/12/13 05:31:03;;;;;;;;;;;8.20;99.90;;;;;;5107803;28;19916;-63
2023/12/13 05:33:28;;;;;;;;;;;8.20;99.90;;;;;;5110008;28;19915;-63
2023/12/13 05:35:53;;;;;;;;;;;8.20;99.90;;;;;;5117386;28;19919;-63
2023/12/13 05:38:19;;;;;;;;;;;8.20;99.90;;;;;;5120608;28;19980;-62
2023/12/13 05:40:44;;;;;;;;;;;8.10;99.90;;;;;;5120785;28;19915;-62
2023/12/13 05:43:10;;;;;;;;;;;8.20;99.90;;;;;;5117788;27;19916;-63
2023/12/13 05:45:35;;;;;;;;;;;8.20;99.90;;;;;;5127461;27;20378;-63
2023/12/13 05:48:01;;;;;;;;;;;8.20;99.90;;;;;;5118364;27;19980;-63
2023/12/13 05:50:26;;;;;;;;;;;8.10;99.90;;;;;;5124913;27;19994;-63
2023/12/13 05:52:52;;;;;;;;;;;8.20;99.90;;;;;;5119750;27;19920;-63
2023/12/13 05:55:17;;;;;;;;;;;8.10;99.90;;;;;;5121408;27;19920;-63
2023/12/13 05:57:43;;;;;;;;;;;8.20;99.90;;;;;;5123507;27;19962;-63
2023/12/13 06:00:09;;;;;;;;;;;8.10;99.90;;;;;;5125378;27;20335;-63
2023/12/13 06:02:35;;;;;;;;;;;8.20;99.90;;;;;;5130694;27;19915;-62
2023/12/13 06:05:02;;;;;;;;;;;8.20;99.90;;;;;;5126425;27;19920;-62
2023/12/13 06:07:28;;;;;;;;;;;8.10;99.90;;;;;;5124908;27;19923;-62
2023/12/13 06:09:54;;;;;;;;;;;8.10;99.90;;;;;;5125163;27;19972;-62
2023/12/13 06:12:19;;;;;;;;;;;8.10;99.90;;;;;;5122706;27;20081;-63
2023/12/13 06:14:45;;;;;;;;;;;8.10;99.90;;;;;;5127022;27;19968;-62
2023/12/13 06:17:10;;;;;;;;;;;8.10;99.90;;;;;;5122183;27;19916;-62
2023/12/13 06:19:36;;;;;;;;;;;8.10;99.90;;;;;;5123568;27;19924;-62
2023/12/13 06:22:01;;;;;;;;;;;8.10;99.90;;;;;;5122053;27;19947;-62
2023/12/13 06:24:27;;;;;;;;;;;8.10;99.90;;;;;;5125369;27;19946;-63
2023/12/13 06:26:52;;;;;;;;;;;8.10;99.90;;;;;;5122583;27;19923;-62
2023/12/13 06:29:18;;;;;;;;;;;8.10;99.90;;;;;;5119158;27;19915;-65
2023/12/13 06:31:44;;;;;;;;;;;8.10;99.90;;;;;;5124809;27;19938;-64
2023/12/13 06:34:09;;;;;;;;;;;8.10;99.90;;;;;;5124407;27;19922;-64
2023/12/13 06:36:35;;;;;;;;;;;8.10;99.90;;;;;;5111237;27;19924;-64
2023/12/13 06:39:04;;;;;;;;;;;8.10;99.90;;;;;;5124518;27;19923;-64
2023/12/13 06:41:30;;;;;;;;;;;8.10;99.90;;;;;;5123086;27;19915;-64
2023/12/13 06:43:56;;;;;;;;;;;8.10;99.90;;;;;;5123407;27;19916;-64
2023/12/13 06:46:22;;;;;;;;;;;8.10;99.90;;;;;;5126421;27;19915;-64
2023/12/13 06:48:48;;;;;;;;;;;8.10;99.90;;;;;;5121128;27;19916;-64
2023/12/13 06:51:13;;;;;;;;;;;8.10;99.90;;;;;;5123024;27;19925;-64
2023/12/13 06:53:39;;;;;;;;;;;8.10;99.90;;;;;;5118321;27;19998;-64
2023/12/13 06:56:05;;;;;;;;;;;8.10;99.90;;;;;;5121017;27;19926;-64
2023/12/13 06:58:30;;;;;;;;;;;8.10;99.90;;;;;;5128992;27;19931;-64
2023/12/13 07:00:56;;;;;;;;;;;8.10;99.90;;;;;;5121602;27;19915;-64
2023/12/13 07:03:21;;;;;;;;;;;8.10;99.90;;;;;;5125565;27;19915;-64
2023/12/13 07:05:47;;;;;;;;;;;8.10;99.90;;;;;;5116743;27;19919;-64
2023/12/13 07:08:12;;;;;;;;;;;8.00;99.90;;;;;;5107880;27;19916;-64
2023/12/13 07:10:38;;;;;;;;;;;8.00;99.90;;;;;;5115895;27;19916;-64
2023/12/13 07:13:04;;;;;;;;;;;8.10;99.90;;;;;;5109425;27;19920;-64
2023/12/13 07:15:29;;;;;;;;;;;8.00;99.90;;;;;;5112755;27;19924;-64
2023/12/13 07:17:55;;;;;;;;;;;8.00;99.90;;;;;;5114726;27;20370;-64
2023/12/13 07:20:21;;;;;;;;;;;8.00;99.90;;;;;;5116143;27;19973;-64
2023/12/13 07:22:49;;;;;;;;;;;8.10;99.90;;;;;;5115831;27;20398;-64
2023/12/13 07:25:15;;;;;;;;;;;8.10;99.90;;;;;;5119589;27;20391;-64
2023/12/13 07:27:40;;;;;;;;;;;8.10;99.90;;;;;;5117868;27;19964;-64
2023/12/13 07:30:06;;;;;;;;;;;8.00;99.90;;;;;;5109250;27;20302;-64
2023/12/13 07:32:33;;;;;;;;;;;8.10;99.90;;;;;;5116464;27;19967;-64
2023/12/13 07:34:59;;;;;;;;;;;8.10;99.90;;;;;;5111464;27;19924;-64
2023/12/13 07:37:24;;;;;;;;;;;8.00;99.90;;;;;;5114672;27;19938;-64
2023/12/13 07:39:50;;;;;;;;;;;8.10;99.90;;;;;;5107452;27;20378;-64
2023/12/13 07:42:15;;;;;;;;;;;8.10;99.90;;;;;;5108893;27;19916;-64
2023/12/13 07:44:42;;;;;;;;;;;8.10;99.90;;;;;;5106091;27;20274;-64
2023/12/13 07:47:07;;;;;;;;;;;8.10;99.90;;;;;;5106542;27;20516;-64
2023/12/13 07:49:33;;;;;;;;;;;8.10;99.90;;;;;;5104496;27;19916;-64
2023/12/13 07:51:58;;;;;;;;;;;8.10;99.90;;;;;;5105982;27;19969;-64
2023/12/13 07:54:24;;;;;;;;;;;8.10;99.90;;;;;;5110738;27;20963;-64
2023/12/13 07:56:52;;;;;;;;;;;8.10;99.90;;;;;;5111423;27;19919;-64
2023/12/13 07:59:17;;;;;;;;;;;8.10;99.90;;;;;;5117695;27;19949;-64
2023/12/13 08:01:43;;;;;;;;;;;8.10;99.90;;;;;;5127790;27;19915;-66
2023/12/13 08:04:08;;;;;;;;;;;8.10;99.90;;;;;;5124676;27;19919;-64
2023/12/13 08:06:34;;;;;;;;;;;8.10;99.90;;;;;;5122229;27;19988;-64
2023/12/13 08:09:01;;;;;;;;;;;8.10;99.90;;;;;;5103239;27;19937;-64
2023/12/13 08:11:26;;;;;;;;;;;8.10;99.90;;;;;;5108884;27;20304;-64
2023/12/13 08:13:52;;;;;;;;;;;8.10;99.90;;;;;;5106632;27;20010;-64
2023/12/13 08:16:18;;;;;;;;;;;8.10;99.90;;;;;;5104194;27;19934;-64
2023/12/13 08:18:44;;;;;;;;;;;8.10;99.90;;;;;;5106784;27;20999;-66
2023/12/13 08:21:10;;;;;;;;;;;8.10;99.90;;;;;;5111883;27;19916;-66
2023/12/13 08:23:35;;;;;;;;;;;8.10;99.90;;;;;;5108535;27;20018;-66
2023/12/13 08:26:01;;;;;;;;;;;8.10;99.90;;;;;;5091728;27;20409;-67
2023/12/13 08:28:26;;;;;;;;;;;8.20;99.90;;;;;;5105880;27;19927;-66
2023/12/13 08:30:52;;;;;;;;;;;8.10;99.90;;;;;;5107092;27;19919;-66
2023/12/13 08:33:17;;;;;;;;;;;8.10;99.90;;;;;;5108843;27;19922;-66
2023/12/13 08:35:43;;;;;;;;;;;8.10;99.90;;;;;;5109093;27;19923;-66
2023/12/13 08:38:08;;;;;;;;;;;8.10;99.90;;;;;;5106275;27;19919;-66
2023/12/13 08:40:34;;;;;;;;;;;8.10;99.90;;;;;;5105311;27;19923;-66
2023/12/13 08:43:00;;;;;;;;;;;8.10;99.90;;;;;;5103805;27;20285;-66
2023/12/13 08:45:25;;;;;;;;;;;8.10;99.90;;;;;;5107818;27;19931;-64
2023/12/13 08:47:51;;;;;;;;;;;8.10;99.90;;;;;;5104103;27;19915;-65
2023/12/13 08:50:17;;;;;;;;;;;8.20;99.90;;;;;;5101768;27;19920;-65
2023/12/13 08:52:42;;;;;;;;;;;8.10;99.90;;;;;;5104966;27;20117;-65
2023/12/13 08:55:08;;;;;;;;;;;8.20;99.90;;;;;;5087855;28;19959;-66
2023/12/13 08:57:34;;;;;;;;;;;8.20;99.90;;;;;;5106085;27;20002;-66
2023/12/13 09:00:00;;;;;;;;;;;8.20;99.90;;;;;;5106486;27;19916;-66
2023/12/13 09:02:25;;;;;;;;;;;8.20;99.90;;;;;;5106954;27;19923;-66
2023/12/13 09:04:51;;;;;;;;;;;8.20;99.90;;;;;;5107139;27;19915;-65
2023/12/13 09:07:17;;;;;;;;;;;8.20;99.90;;;;;;5110466;28;19926;-66
2023/12/13 09:09:43;;;;;;;;;;;8.30;99.90;;;;;;5109045;27;19915;-65
2023/12/13 09:12:08;;;;;;;;;;;8.20;99.90;;;;;;5110300;28;19924;-66
2023/12/13 09:14:34;;;;;;;;;;;8.30;99.90;;;;;;5110802;28;19915;-66
2023/12/13 09:17:01;;;;;;;;;;;8.30;99.90;;;;;;5111247;27;20412;-65
2023/12/13 09:19:27;;;;;;;;;;;8.30;99.90;;;;;;5115153;27;20301;-65
2023/12/13 09:21:52;;;;;;;;;;;8.30;99.90;;;;;;5112361;27;19920;-65
2023/12/13 09:24:18;;;;;;;;;;;8.30;99.90;;;;;;5110941;27;19938;-65
2023/12/13 09:26:43;;;;;;;;;;;8.40;99.90;;;;;;5107261;27;19916;-65
2023/12/13 09:29:10;;;;;;;;;;;8.30;99.90;;;;;;5108064;27;19916;-65
2023/12/13 09:31:35;;;;;;;;;;;8.40;99.90;;;;;;5108576;27;19915;-65
2023/12/13 09:34:02;;;;;;;;;;;8.30;99.90;;;;;;5110733;27;19923;-65
2023/12/13 09:36:27;;;;;;;;;;;8.40;99.90;;;;;;5113068;27;20481;-65
2023/12/13 09:38:53;;;;;;;;;;;8.40;99.90;;;;;;5112062;27;20389;-65
2023/12/13 09:41:25;;;;;;;;;;;8.40;99.90;;;;;;5112993;27;19923;-65
2023/12/13 09:43:53;;;;;;;;;;;8.40;99.90;;;;;;5106774;27;20325;-67
2023/12/13 09:46:20;;;;;;;;;;;8.40;99.90;;;;;;5112531;27;19923;-65
2023/12/13 09:48:45;;;;;;;;;;;8.50;99.90;;;;;;5109554;27;19923;-65
2023/12/13 09:51:12;;;;;;;;;;;8.50;99.90;;;;;;5107548;27;19935;-65
2023/12/13 09:53:38;;;;;;;;;;;8.40;99.90;;;;;;5107365;27;19920;-65
2023/12/13 09:56:04;;;;;;;;;;;8.50;99.90;;;;;;5110860;27;20300;-66
2023/12/13 09:58:30;;;;;;;;;;;8.50;99.90;;;;;;5115791;27;19916;-65
2023/12/13 10:00:56;;;;;;;;;;;8.50;99.90;;;;;;5114307;27;19923;-65
2023/12/13 10:03:21;;;;;;;;;;;8.50;99.90;;;;;;5112541;27;19915;-65
2023/12/13 10:05:48;;;;;;;;;;;8.50;99.90;;;;;;5108847;27;20002;-65
2023/12/13 10:08:14;;;;;;;;;;;8.50;99.90;;;;;;5112628;27;20018;-65
2023/12/13 10:10:40;;;;;;;;;;;8.50;99.90;;;;;;5110955;27;20130;-65
2023/12/13 10:13:09;;;;;;;;;;;8.60;99.90;;;;;;5110563;27;20371;-65
2023/12/13 10:15:35;;;;;;;;;;;8.60;99.90;;;;;;5112756;27;19927;-65
2023/12/13 10:18:01;;;;;;;;;;;8.60;99.90;;;;;;5109713;27;20297;-64
2023/12/13 10:20:28;;;;;;;;;;;8.60;99.90;;;;;;5114981;27;19923;-64
2023/12/13 10:22:54;;;;;;;;;;;8.60;99.90;;;;;;5110170;27;19951;-64
2023/12/13 10:25:20;;;;;;;;;;;8.60;99.90;;;;;;5113999;27;19966;-64
2023/12/13 10:27:46;;;;;;;;;;;8.60;99.90;;;;;;5110691;27;19931;-65
2023/12/13 10:30:12;;;;;;;;;;;8.60;99.90;;;;;;5111889;27;19915;-65
2023/12/13 10:32:38;;;;;;;;;;;8.70;99.90;;;;;;5116062;27;20371;-65
2023/12/13 10:35:04;;;;;;;;;;;8.70;99.90;;;;;;5104324;27;19976;-65
2023/12/13 10:37:33;;;;;;;;;;;8.70;99.90;;;;;;5102605;27;19973;-65
2023/12/13 10:39:59;;;;;;;;;;;8.70;99.90;;;;;;5107649;27;20390;-65
2023/12/13 10:42:24;;;;;;;;;;;8.70;99.90;;;;;;5108883;27;20342;-65
2023/12/13 10:44:51;;;;;;;;;;;8.70;99.90;;;;;;5108351;27;19916;-65
2023/12/13 10:47:16;;;;;;;;;;;8.70;99.90;;;;;;5107681;27;19970;-65
2023/12/13 10:49:43;;;;;;;;;;;8.70;99.90;;;;;;5108596;27;19959;-65
2023/12/13 10:52:09;;;;;;;;;;;8.70;99.90;;;;;;5109063;27;20289;-65
2023/12/13 10:54:36;;;;;;;;;;;8.70;99.90;;;;;;5108148;27;20367;-65
2023/12/13 10:57:02;;;;;;;;;;;8.70;99.90;;;;;;5106504;27;19999;-65
2023/12/13 10:59:28;;;;;;;;;;;8.70;99.90;;;;;;5088343;27;20346;-64
2023/12/13 11:01:54;;;;;;;;;;;8.70;99.90;;;;;;5106906;27;19925;-65
2023/12/13 11:04:20;;;;;;;;;;;8.80;99.90;;;;;;5108332;27;19915;-65
2023/12/13 11:06:46;;;;;;;;;;;8.80;99.90;;;;;;5108354;27;19923;-65
2023/12/13 11:09:17;;;;;;;;;;;8.80;99.90;;;;;;5109026;27;19997;-64
2023/12/13 11:11:43;;;;;;;;;;;8.80;99.90;;;;;;5111892;27;19915;-63
2023/12/13 11:14:09;;;;;;;;;;;8.80;99.90;;;;;;5106642;27;19941;-63
2023/12/13 11:16:45;;;;;;;;;;;8.80;99.90;;;;;;5107700;27;19983;-63
2023/12/13 11:19:15;;;;;;;;;;;8.80;99.90;;;;;;5106417;27;20446;-63
2023/12/13 11:21:43;;;;;;;;;;;8.80;99.90;;;;;;5108891;27;19927;-64
2023/12/13 11:24:13;;;;;;;;;;;8.90;99.90;;;;;;5107657;27;19978;-63
2023/12/13 11:26:45;;;;;;;;;;;8.80;99.90;;;;;;5104771;27;20176;-63
2023/12/13 11:29:22;;;;;;;;;;;8.80;99.90;;;;;;5106941;27;20458;-63
2023/12/13 11:31:51;;;;;;;;;;;8.80;99.90;;;;;;5105856;27;20382;-63
2023/12/13 11:34:18;;;;;;;;;;;8.90;99.90;;;;;;5104213;27;19919;-63
2023/12/13 11:36:45;;;;;;;;;;;8.90;99.90;;;;;;5108912;27;19927;-63
2023/12/13 11:39:10;;;;;;;;;;;8.90;99.90;;;;;;5107556;27;19920;-63
2023/12/13 11:41:36;;;;;;;;;;;8.90;99.90;;;;;;5090673;27;19929;-63
2023/12/13 11:44:02;;;;;;;;;;;9.00;99.90;;;;;;5105704;27;19920;-63
2023/12/13 11:46:29;;;;;;;;;;;9.00;99.90;;;;;;5108702;27;20040;-64
2023/12/13 11:48:55;;;;;;;;;;;9.00;99.90;;;;;;5105366;27;20556;-63
2023/12/13 11:51:20;;;;;;;;;;;9.10;99.90;;;;;;5108384;27;20011;-63
2023/12/13 11:53:48;;;;;;;;;;;9.10;99.90;;;;;;5108007;27;20086;-63
2023/12/13 11:56:16;;;;;;;;;;;9.20;99.90;;;;;;5104528;27;19931;-64
2023/12/13 11:58:42;;;;;;;;;;;9.20;99.90;;;;;;5105844;27;19919;-63
2023/12/13 12:01:07;;;;;;;;;;;9.20;99.90;;;;;;5106084;27;19931;-64
2023/12/13 12:03:33;;;;;;;;;;;9.30;99.90;;;;;;5110008;27;19984;-64
2023/12/13 12:05:59;;;;;;;;;;;9.30;99.90;;;;;;5107739;27;20270;-63
2023/12/13 12:08:24;;;;;;;;;;;9.30;99.90;;;;;;5107471;27;19930;-64
2023/12/13 12:10:50;;;;;;;;;;;9.40;99.90;;;;;;5104926;28;19919;-64
2023/12/13 12:13:17;;;;;;;;;;;9.40;99.90;;;;;;5105776;27;19924;-63
2023/12/13 12:15:44;;;;;;;;;;;9.40;99.90;;;;;;5102542;27;19926;-64
2023/12/13 12:18:11;;;;;;;;;;;9.50;99.90;;;;;;5105426;27;19916;-63
2023/12/13 12:20:36;;;;;;;;;;;9.50;99.90;;;;;;5107485;27;19924;-64
2023/12/13 12:23:02;;;;;;;;;;;9.50;99.90;;;;;;5106048;27;20032;-64
2023/12/13 12:25:31;;;;;;;;;;;9.60;99.90;;;;;;5091867;27;19930;-64
2023/12/13 12:27:56;;;;;;;;;;;9.60;99.90;;;;;;5108025;27;20309;-64
2023/12/13 12:30:22;;;;;;;;;;;9.60;99.90;;;;;;5113421;27;19929;-63
2023/12/13 12:32:48;;;;;;;;;;;9.60;99.90;;;;;;5108209;27;20097;-63
2023/12/13 12:35:14;;;;;;;;;;;9.60;99.90;;;;;;5109962;27;19934;-64
2023/12/13 12:37:42;;;;;;;;;;;9.70;99.90;;;;;;5105265;27;19915;-64
2023/12/13 12:40:08;;;;;;;;;;;9.70;99.90;;;;;;5107042;27;19924;-63
2023/12/13 12:42:34;;;;;;;;;;;9.70;99.90;;;;;;5107106;27;19916;-64
2023/12/13 12:45:00;;;;;;;;;;;9.80;99.90;;;;;;5105957;27;20011;-64
2023/12/13 12:47:25;;;;;;;;;;;9.80;99.90;;;;;;5103717;27;19923;-64
2023/12/13 12:49:52;;;;;;;;;;;9.90;99.90;;;;;;5104554;27;20359;-63
2023/12/13 12:52:21;;;;;;;;;;;9.90;99.90;;;;;;5104272;27;20126;-63
2023/12/13 12:54:47;;;;;;;;;;;9.90;99.90;;;;;;5102893;28;20014;-63
2023/12/13 12:57:12;;;;;;;;;;;10.00;99.90;;;;;;5102927;28;20485;-63
2023/12/13 12:59:38;;;;;;;;;;;10.00;99.90;;;;;;5103369;27;19931;-63
2023/12/13 13:02:03;;;;;;;;;;;10.10;99.90;;;;;;5103969;28;20011;-63
2023/12/13 13:04:29;;;;;;;;;;;10.20;99.90;;;;;;5101798;27;20050;-63
2023/12/13 13:06:56;;;;;;;;;;;10.20;99.90;;;;;;5104584;28;20347;-63
2023/12/13 13:09:21;;;;;;;;;;;10.20;99.90;;;;;;5103886;27;19915;-63
2023/12/13 13:11:47;;;;;;;;;;;10.10;99.90;;;;;;5102597;28;19943;-63
2023/12/13 13:14:12;;;;;;;;;;;10.10;99.90;;;;;;5105022;28;19981;-63
2023/12/13 13:16:38;;;;;;;;;;;10.10;99.90;;;;;;5103584;28;19964;-63
2023/12/13 13:19:05;;;;;;;;;;;10.10;99.90;;;;;;5103727;28;19915;-64
2023/12/13 13:21:30;;;;;;;;;;;10.10;99.90;;;;;;5102486;28;19920;-63
2023/12/13 13:23:56;;;;;;;;;;;10.10;99.90;;;;;;5104319;28;19939;-63
2023/12/13 13:26:21;;;;;;;;;;;10.10;99.90;;;;;;5104289;28;20361;-63
2023/12/13 13:28:47;;;;;;;;;;;10.10;99.90;;;;;;5103481;28;19927;-63
2023/12/13 13:31:15;;;;;;;;;;;10.00;99.90;;;;;;5102533;28;19915;-64
2023/12/13 13:33:40;;;;;;;;;;;10.00;99.90;;;;;;5104119;28;20056;-63
2023/12/13 13:36:06;;;;;;;;;;;9.90;99.90;;;;;;5102403;28;20527;-63
2023/12/13 13:38:32;;;;;;;;;;;9.90;99.90;;;;;;5103445;27;19924;-63
2023/12/13 13:40:58;;;;;;;;;;;9.90;99.90;;;;;;5103372;28;20005;-64
2023/12/13 13:43:23;;;;;;;;;;;9.90;99.90;;;;;;5106776;28;19916;-64
2023/12/13 13:45:49;;;;;;;;;;;9.90;99.90;;;;;;5101465;28;21223;-63
2023/12/13 13:48:16;;;;;;;;;;;9.90;99.90;;;;;;5103562;28;19924;-64
2023/12/13 13:50:42;;;;;;;;;;;9.90;99.90;;;;;;5104233;28;19920;-63
2023/12/13 13:53:09;;;;;;;;;;;9.90;99.90;;;;;;5100960;28;19923;-63
2023/12/13 13:55:35;;;;;;;;;;;9.90;99.90;;;;;;5102506;28;19989;-63
2023/12/13 13:58:00;;;;;;;;;;;9.90;99.90;;;;;;5084514;28;19928;-64
2023/12/13 14:00:27;;;;;;;;;;;9.90;99.90;;;;;;5101529;28;19968;-64
2023/12/13 14:02:52;;;;;;;;;;;9.90;99.90;;;;;;5101531;28;20296;-63
2023/12/13 14:05:18;;;;;;;;;;;9.80;99.90;;;;;;5107454;27;20010;-64
2023/12/13 14:07:43;;;;;;;;;;;9.80;99.90;;;;;;5111223;27;19919;-64
2023/12/13 14:10:09;;;;;;;;;;;9.80;99.90;;;;;;5105218;27;19922;-63
2023/12/13 14:12:34;;;;;;;;;;;9.80;99.90;;;;;;5109644;27;19970;-63
2023/12/13 14:15:00;;;;;;;;;;;9.80;99.90;;;;;;5105736;27;19926;-64
2023/12/13 14:17:25;;;;;;;;;;;9.80;99.90;;;;;;5105606;27;19934;-64
2023/12/13 14:19:51;;;;;;;;;;;9.80;99.90;;;;;;5109975;27;19919;-64